createdAt,value
2022-11-18T00:01:42.977Z,18.27
2022-11-18T00:03:45.876Z,20.00
2022-11-18T00:05:55.674Z,19.08
2022-11-18T00:07:57.472Z,18.98
2022-11-18T00:09:59.608Z,19.27
2022-11-18T00:12:20.047Z,19.00
2022-11-18T00:14:27.560Z,19.17
2022-11-18T00:16:29.401Z,17.48
2022-11-18T00:18:31.568Z,18.05
2022-11-18T00:20:35.528Z,18.40
2022-11-18T00:22:37.310Z,18.63
2022-11-18T00:24:39.162Z,19.00
2022-11-18T00:26:41.639Z,18.48
2022-11-18T00:28:43.424Z,18.40
2022-11-18T00:30:45.250Z,20.33
2022-11-18T00:32:47.439Z,18.95
2022-11-18T00:34:49.210Z,19.45
2022-11-18T00:36:51.050Z,20.08
2022-11-18T00:38:53.768Z,19.60
2022-11-18T00:41:03.653Z,22.13
2022-11-18T00:43:05.433Z,19.85
2022-11-18T00:45:07.861Z,20.05
2022-11-18T00:47:09.714Z,19.67
2022-11-18T00:49:11.566Z,20.38
2022-11-18T00:51:17.143Z,19.58
2022-11-18T00:53:19.532Z,19.55
2022-11-18T00:55:21.415Z,20.52
2022-11-18T00:57:23.599Z,19.60
2022-11-18T00:59:25.659Z,19.77
2022-11-18T01:01:27.612Z,20.83
2022-11-18T01:03:30.842Z,19.85
2022-11-18T01:05:32.636Z,19.00
2022-11-18T01:07:34.484Z,19.15
2022-11-18T01:09:36.803Z,19.88
2022-11-18T01:11:56.898Z,18.17
2022-11-18T01:13:58.695Z,18.83
2022-11-18T01:16:01.036Z,19.83
2022-11-18T01:18:02.870Z,18.20
2022-11-18T01:20:05.164Z,19.67
2022-11-18T01:22:07.296Z,19.27
2022-11-18T01:24:09.108Z,19.98
2022-11-18T01:26:12.528Z,18.77
2022-11-18T01:28:20.325Z,20.08
2022-11-18T01:30:25.329Z,19.95
2022-11-18T01:32:28.632Z,19.10
2022-11-18T01:34:31.213Z,19.40
2022-11-18T01:36:33.048Z,19.40
2022-11-18T01:38:34.831Z,19.58
2022-11-18T01:40:38.740Z,19.65
2022-11-18T01:42:40.530Z,20.20
2022-11-18T01:44:58.964Z,18.92
2022-11-18T01:47:01.137Z,19.25
2022-11-18T01:49:09.523Z,18.73
2022-11-18T01:51:16.353Z,19.02
2022-11-18T01:53:23.852Z,20.08
2022-11-18T01:55:31.332Z,19.65
2022-11-18T01:57:33.681Z,18.38
2022-11-18T01:59:39.792Z,17.90
2022-11-18T02:01:41.891Z,18.95
2022-11-18T02:03:45.229Z,19.25
2022-11-18T02:05:49.536Z,18.20
2022-11-18T02:07:51.483Z,17.55
2022-11-18T02:09:56.247Z,17.43
2022-11-18T02:11:58.800Z,19.15
2022-11-18T02:14:06.186Z,17.67
2022-11-18T02:16:26.005Z,17.85
2022-11-18T02:18:43.918Z,17.60
2022-11-18T02:20:48.022Z,17.42
2022-11-18T02:23:14.819Z,17.65
2022-11-18T02:25:29.184Z,17.35
2022-11-18T02:28:05.794Z,17.67
2022-11-18T02:30:13.592Z,15.52
2022-11-18T02:32:25.302Z,17.13
2022-11-18T02:34:54.810Z,15.52
2022-11-18T02:37:06.505Z,16.05
2022-11-18T02:39:16.364Z,16.52
2022-11-18T02:41:23.360Z,16.63
2022-11-18T02:43:31.297Z,18.00
2022-11-18T02:45:34.813Z,17.02
2022-11-18T02:47:38.196Z,16.88
2022-11-18T02:49:43.665Z,17.35
2022-11-18T02:51:48.589Z,17.33
2022-11-18T02:53:52.245Z,17.17
2022-11-18T02:55:55.564Z,17.08
2022-11-18T02:58:00.957Z,17.40
2022-11-18T03:00:03.669Z,16.58
2022-11-18T03:02:05.521Z,16.45
2022-11-18T03:04:07.880Z,15.63
2022-11-18T03:06:36.741Z,17.23
2022-11-18T03:08:54.412Z,16.00
2022-11-18T03:11:08.276Z,16.75
2022-11-18T03:13:33.396Z,15.43
2022-11-18T03:15:59.253Z,16.80
2022-11-18T03:18:30.489Z,16.98
2022-11-18T03:20:40.440Z,16.65
2022-11-18T03:22:55.327Z,17.30
2022-11-18T03:25:05.718Z,18.27
2022-11-18T03:27:24.003Z,18.10
2022-11-18T03:29:34.607Z,20.95
2022-11-18T03:31:47.346Z,22.65
2022-11-18T03:33:56.986Z,21.30
2022-11-18T03:36:03.461Z,22.67
2022-11-18T03:38:10.514Z,22.52
2022-11-18T03:40:21.434Z,22.33
2022-11-18T03:42:28.815Z,22.00
2022-11-18T03:44:34.859Z,21.55
2022-11-18T03:46:42.082Z,20.75
2022-11-18T03:48:51.193Z,20.73
2022-11-18T03:50:59.819Z,18.73
2022-11-18T03:53:03.290Z,19.33
2022-11-18T03:57:19.696Z,20.48
2022-11-18T03:59:31.630Z,20.17
2022-11-18T04:01:41.004Z,19.17
2022-11-18T04:03:43.769Z,16.80
2022-11-18T04:05:51.366Z,17.77
2022-11-18T04:07:59.041Z,17.27
2022-11-18T04:10:22.092Z,17.60
2022-11-18T04:12:28.313Z,16.85
2022-11-18T04:14:39.175Z,18.05
2022-11-18T04:16:43.102Z,18.40
2022-11-18T04:18:45.268Z,19.25
2022-11-18T04:20:47.238Z,17.85
2022-11-18T04:22:49.102Z,17.80
2022-11-18T04:24:51.248Z,18.77
2022-11-18T04:26:53.062Z,17.60
2022-11-18T04:28:55.035Z,17.25
2022-11-18T04:30:57.184Z,18.52
2022-11-18T04:32:59.155Z,17.30
2022-11-18T04:35:01.014Z,16.40
2022-11-18T04:37:03.413Z,15.75
2022-11-18T04:39:06.032Z,16.73
2022-11-18T04:41:07.821Z,16.38
2022-11-18T04:43:09.956Z,16.83
2022-11-18T04:45:11.870Z,16.00
2022-11-18T04:47:13.854Z,11.13
2022-11-18T04:49:16.622Z,15.65
2022-11-18T04:51:18.645Z,16.35
2022-11-18T04:53:20.444Z,16.20
2022-11-18T04:55:22.649Z,15.77
2022-11-18T04:57:24.542Z,15.63
2022-11-18T04:59:28.696Z,16.38
2022-11-18T05:01:31.012Z,16.60
2022-11-18T05:03:32.883Z,16.38
2022-11-18T05:05:35.249Z,16.23
2022-11-18T05:07:37.479Z,16.30
2022-11-18T05:09:39.449Z,16.37
2022-11-18T05:11:59.720Z,15.95
2022-11-18T05:14:01.913Z,14.20
2022-11-18T05:16:03.836Z,14.65
2022-11-18T05:18:05.798Z,14.73
2022-11-18T05:20:08.513Z,15.57
2022-11-18T05:22:10.443Z,15.90
2022-11-18T05:24:12.380Z,15.82
2022-11-18T05:26:14.560Z,13.82
2022-11-18T05:28:16.337Z,14.52
2022-11-18T05:30:18.309Z,13.35
2022-11-18T05:32:20.562Z,10.23
2022-11-18T05:34:22.658Z,12.73
2022-11-18T05:36:25.201Z,12.82
2022-11-18T05:38:27.303Z,12.88
2022-11-18T05:40:29.073Z,11.75
2022-11-18T05:42:49.616Z,11.57
2022-11-18T05:44:57.830Z,11.40
2022-11-18T05:47:00.402Z,11.93
2022-11-18T05:49:02.224Z,11.57
2022-11-18T05:51:04.436Z,12.23
2022-11-18T05:53:06.354Z,11.77
2022-11-18T05:55:09.662Z,11.30
2022-11-18T05:57:11.793Z,11.70
2022-11-18T05:59:14.346Z,11.52
2022-11-18T06:01:20.889Z,11.07
2022-11-18T06:03:30.801Z,11.60
2022-11-18T06:05:33.017Z,12.02
2022-11-18T06:07:44.639Z,10.43
2022-11-18T06:09:52.071Z,10.93
2022-11-18T06:11:57.396Z,9.95
2022-11-18T06:14:05.836Z,10.80
2022-11-18T06:16:08.128Z,9.85
2022-11-18T06:18:23.503Z,11.57
2022-11-18T06:20:26.423Z,10.82
2022-11-18T06:22:28.627Z,10.27
2022-11-18T06:24:30.825Z,14.30
2022-11-18T06:26:32.835Z,7.82
2022-11-18T06:28:36.237Z,11.30
2022-11-18T06:30:38.943Z,10.35
2022-11-18T06:32:41.076Z,11.23
2022-11-18T06:34:43.249Z,10.32
2022-11-18T06:36:45.028Z,10.93
2022-11-18T06:38:46.824Z,11.13
2022-11-18T06:40:48.948Z,10.77
2022-11-18T06:43:09.333Z,11.45
2022-11-18T06:45:11.361Z,10.50
2022-11-18T06:47:13.550Z,10.45
2022-11-18T06:49:15.503Z,11.13
2022-11-18T06:51:17.957Z,11.18
2022-11-18T06:53:20.062Z,13.10
2022-11-18T06:55:21.881Z,10.98
2022-11-18T06:57:23.722Z,10.88
2022-11-18T06:59:25.854Z,11.07
2022-11-18T07:01:34.397Z,11.18
2022-11-18T07:03:36.261Z,10.07
2022-11-18T07:05:38.493Z,7.88
2022-11-18T07:07:42.176Z,9.90
2022-11-18T07:09:45.057Z,10.57
2022-11-18T07:11:47.252Z,10.35
2022-11-18T07:13:49.300Z,10.52
2022-11-18T07:15:51.143Z,10.38
2022-11-18T07:17:53.247Z,10.57
2022-11-18T07:19:55.069Z,9.77
2022-11-18T07:21:57.346Z,10.48
2022-11-18T07:23:59.469Z,10.35
2022-11-18T07:26:01.696Z,9.65
2022-11-18T07:28:03.661Z,9.30
2022-11-18T07:30:06.395Z,11.48
2022-11-18T07:32:08.806Z,12.98
2022-11-18T07:34:10.662Z,11.23
2022-11-18T07:36:15.355Z,9.82
2022-11-18T07:38:17.133Z,9.15
2022-11-18T07:40:18.904Z,12.88
2022-11-18T07:42:21.113Z,9.20
2022-11-18T07:44:22.957Z,8.05
2022-11-18T07:46:28.990Z,9.07
2022-11-18T07:48:31.121Z,8.02
2022-11-18T07:50:32.957Z,7.82
2022-11-18T07:52:34.741Z,8.25
2022-11-18T07:54:36.862Z,7.68
2022-11-18T07:56:39.181Z,7.50
2022-11-18T07:58:41.736Z,7.05
2022-11-18T08:02:49.456Z,7.43
2022-11-18T08:04:51.281Z,7.43
2022-11-18T08:06:53.477Z,7.20
2022-11-18T08:08:55.300Z,6.88
2022-11-18T08:10:58.909Z,7.13
2022-11-18T08:13:01.076Z,8.45
2022-11-18T08:15:03.249Z,9.13
2022-11-18T08:17:05.062Z,6.78
2022-11-18T08:19:07.260Z,6.80
2022-11-18T08:21:09.549Z,7.03
2022-11-18T08:23:12.362Z,7.05
2022-11-18T08:25:14.989Z,6.65
2022-11-18T08:27:16.745Z,6.63
2022-11-18T08:29:23.576Z,6.68
2022-11-18T08:31:30.640Z,7.38
2022-11-18T08:33:32.491Z,7.57
2022-11-18T08:35:34.298Z,6.72
2022-11-18T08:37:36.531Z,6.57
2022-11-18T08:39:38.309Z,6.53
2022-11-18T08:41:43.181Z,6.65
2022-11-18T08:43:45.476Z,7.05
2022-11-18T08:45:47.788Z,6.43
2022-11-18T08:47:49.582Z,7.47
2022-11-18T08:49:51.749Z,6.63
2022-11-18T08:51:53.665Z,6.72
2022-11-18T08:53:55.986Z,6.22
2022-11-18T08:55:59.598Z,6.30
2022-11-18T08:58:01.375Z,6.90
2022-11-18T09:00:04.880Z,6.85
2022-11-18T09:02:14.054Z,6.13
2022-11-18T09:04:15.948Z,6.70
2022-11-18T09:06:20.617Z,7.30
2022-11-18T09:08:26.682Z,6.85
2022-11-18T09:10:28.792Z,6.43
2022-11-18T09:12:30.710Z,6.70
2022-11-18T09:15:12.449Z,7.35
2022-11-18T09:16:54.767Z,7.38
2022-11-18T09:19:18.148Z,7.80
2022-11-18T09:21:23.329Z,7.57
2022-11-18T09:23:25.927Z,8.25
2022-11-18T09:25:27.693Z,8.02
2022-11-18T09:27:29.505Z,7.90
2022-11-18T09:29:32.458Z,7.50
2022-11-18T09:31:34.523Z,7.35
2022-11-18T09:33:37.902Z,7.45
2022-11-18T09:35:44.364Z,8.43
2022-11-18T09:37:46.213Z,7.82
2022-11-18T09:39:48.038Z,7.72
2022-11-18T09:41:53.345Z,7.28
2022-11-18T09:44:17.041Z,7.13
2022-11-18T09:46:51.356Z,7.32
2022-11-18T09:49:14.082Z,8.15
2022-11-18T09:51:15.884Z,7.22
2022-11-18T09:53:24.254Z,8.35
2022-11-18T09:55:26.357Z,7.90
2022-11-18T09:57:47.175Z,8.43
2022-11-18T09:59:49.532Z,7.38
2022-11-18T10:01:53.653Z,9.13
2022-11-18T10:03:55.752Z,7.40
2022-11-18T10:06:03.901Z,6.30
2022-11-18T10:08:33.808Z,6.97
2022-11-18T10:10:56.769Z,6.40
2022-11-18T10:13:13.287Z,5.45
2022-11-18T10:15:34.028Z,5.93
2022-11-18T10:18:37.943Z,5.82
2022-11-18T10:21:08.169Z,5.95
2022-11-18T10:23:22.012Z,5.57
2022-11-18T10:25:24.019Z,5.25
2022-11-18T10:27:35.172Z,5.57
2022-11-18T10:29:37.572Z,6.47
2022-11-18T10:31:59.617Z,5.38
2022-11-18T10:34:04.603Z,5.68
2022-11-18T10:36:17.616Z,5.28
2022-11-18T10:38:20.815Z,5.32
2022-11-18T10:40:27.765Z,4.90
2022-11-18T10:42:37.554Z,5.43
2022-11-18T10:44:41.500Z,6.00
2022-11-18T10:46:43.332Z,5.32
2022-11-18T10:48:45.970Z,6.65
2022-11-18T10:50:55.008Z,6.43
2022-11-18T10:52:57.713Z,5.13
2022-11-18T10:55:18.369Z,5.68
2022-11-18T10:57:22.259Z,5.63
2022-11-18T10:59:47.070Z,5.57
2022-11-18T11:02:31.120Z,5.40
2022-11-18T11:04:33.011Z,5.72
2022-11-18T11:06:39.616Z,6.30
2022-11-18T11:08:54.027Z,5.82
2022-11-18T11:10:58.817Z,6.13
2022-11-18T11:13:10.137Z,6.18
2022-11-18T11:15:18.383Z,5.97
2022-11-18T11:17:27.333Z,6.35
2022-11-18T11:19:39.721Z,5.68
2022-11-18T11:21:41.526Z,6.10
2022-11-18T11:23:44.408Z,5.78
2022-11-18T11:28:50.891Z,6.53
2022-11-18T11:31:21.098Z,6.32
2022-11-18T11:33:32.930Z,6.40
2022-11-18T11:35:42.018Z,9.05
2022-11-18T11:37:59.479Z,6.57
2022-11-18T11:40:22.189Z,6.18
2022-11-18T11:42:39.390Z,6.30
2022-11-18T11:45:06.198Z,6.15
2022-11-18T11:47:49.498Z,6.03
2022-11-18T11:50:03.453Z,6.10
2022-11-18T11:52:31.708Z,5.95
2022-11-18T11:55:01.695Z,5.85
2022-11-18T11:57:23.563Z,6.25
2022-11-18T11:59:46.133Z,6.25
2022-11-18T12:02:16.016Z,4.53
2022-11-18T12:04:37.077Z,6.15
2022-11-18T12:06:39.388Z,5.45
2022-11-18T12:08:55.986Z,6.28
2022-11-18T12:11:15.058Z,6.15
2022-11-18T12:13:22.777Z,6.18
2022-11-18T12:15:43.524Z,9.68
2022-11-18T12:17:59.662Z,5.80
2022-11-18T12:20:41.874Z,5.75
2022-11-18T12:23:22.076Z,4.78
2022-11-18T12:25:48.851Z,5.22
2022-11-18T12:27:54.951Z,5.07
2022-11-18T12:30:03.816Z,5.13
2022-11-18T12:32:31.570Z,5.40
2022-11-18T12:34:42.173Z,4.78
2022-11-18T12:36:43.998Z,4.60
2022-11-18T12:38:45.826Z,4.50
2022-11-18T12:40:52.643Z,4.93
2022-11-18T12:43:13.486Z,4.22
2022-11-18T12:45:40.190Z,5.15
2022-11-18T12:47:42.375Z,5.70
2022-11-18T12:49:44.119Z,4.82
2022-11-18T12:51:46.375Z,4.82
2022-11-18T12:53:50.256Z,5.65
2022-11-18T12:55:52.168Z,4.72
2022-11-18T12:57:54.054Z,5.10
2022-11-18T12:59:56.939Z,5.60
2022-11-18T13:02:17.477Z,4.93
2022-11-18T13:04:22.795Z,5.75
2022-11-18T13:06:28.538Z,5.40
2022-11-18T13:08:30.683Z,5.70
2022-11-18T13:10:37.816Z,5.93
2022-11-18T13:12:40.079Z,5.20
2022-11-18T13:15:02.341Z,5.35
2022-11-18T13:17:42.424Z,4.80
2022-11-18T13:19:56.110Z,5.47
2022-11-18T13:24:22.835Z,5.18
2022-11-18T13:26:29.163Z,5.55
2022-11-18T13:28:58.962Z,5.95
2022-11-18T13:31:07.417Z,5.60
2022-11-18T13:33:11.576Z,5.70
2022-11-18T13:35:19.426Z,5.90
2022-11-18T13:37:32.831Z,5.30
2022-11-18T13:39:34.586Z,6.03
2022-11-18T13:41:36.381Z,5.85
2022-11-18T13:43:38.952Z,21.38
2022-11-18T13:45:41.130Z,7.00
2022-11-18T13:47:55.471Z,5.32
2022-11-18T13:50:10.780Z,5.95
2022-11-18T13:52:18.303Z,6.07
2022-11-18T13:54:27.219Z,6.45
2022-11-18T13:56:35.053Z,6.18
2022-11-18T13:59:10.281Z,6.40
2022-11-18T14:01:05.860Z,7.28
2022-11-18T14:03:36.150Z,7.10
2022-11-18T14:05:40.132Z,7.70
2022-11-18T14:07:41.995Z,7.97
2022-11-18T14:10:02.550Z,12.30
2022-11-18T14:12:22.905Z,8.00
2022-11-18T14:14:33.712Z,7.95
2022-11-18T14:16:40.262Z,8.32
2022-11-18T14:18:46.674Z,7.50
2022-11-18T14:20:53.840Z,8.38
2022-11-18T14:23:05.572Z,9.32
2022-11-18T14:25:27.963Z,9.27
2022-11-18T14:27:38.780Z,9.95
2022-11-18T14:29:50.022Z,14.27
2022-11-18T14:32:13.888Z,10.55
2022-11-18T14:34:26.255Z,10.50
2022-11-18T14:36:28.054Z,11.75
2022-11-18T14:39:31.627Z,12.20
2022-11-18T14:41:10.932Z,12.00
2022-11-18T14:43:13.837Z,12.13
2022-11-18T14:47:29.583Z,12.00
2022-11-18T14:49:32.907Z,12.07
2022-11-18T14:51:34.806Z,13.27
2022-11-18T14:53:36.966Z,11.68
2022-11-18T14:55:39.026Z,11.82
2022-11-18T14:57:40.819Z,12.02
2022-11-18T14:59:44.133Z,12.32
2022-11-18T15:03:48.637Z,12.95
2022-11-18T15:05:50.951Z,12.18
2022-11-18T15:07:52.727Z,11.85
2022-11-18T15:09:54.523Z,12.32
2022-11-18T15:11:56.787Z,12.68
2022-11-18T15:13:58.599Z,12.32
2022-11-18T15:16:02.752Z,12.50
2022-11-18T15:18:05.167Z,12.82
2022-11-18T15:20:10.335Z,12.00
2022-11-18T15:22:12.129Z,12.90
2022-11-18T15:24:14.300Z,13.88
2022-11-18T15:26:18.330Z,10.70
2022-11-18T15:28:20.138Z,10.02
2022-11-18T15:30:22.295Z,10.70
2022-11-18T15:32:24.054Z,9.85
2022-11-18T15:34:26.064Z,10.20
2022-11-18T15:36:28.286Z,11.80
2022-11-18T15:38:30.033Z,10.82
2022-11-18T15:40:31.850Z,10.75
2022-11-18T15:42:38.118Z,7.45
2022-11-18T15:44:47.120Z,10.38
2022-11-18T15:46:49.710Z,14.52
2022-11-18T15:50:54.579Z,11.20
2022-11-18T15:52:57.505Z,11.32
2022-11-18T15:55:01.970Z,10.88
2022-11-18T15:57:05.264Z,11.25
2022-11-18T15:59:15.094Z,12.18
2022-11-18T16:01:17.364Z,12.20
2022-11-18T16:03:19.169Z,10.80
2022-11-18T16:05:20.958Z,10.68
2022-11-18T16:07:23.133Z,10.75
2022-11-18T16:09:25.018Z,11.00
2022-11-18T16:11:46.990Z,10.63
2022-11-18T16:13:49.166Z,10.52
2022-11-18T16:15:51.179Z,10.80
2022-11-18T16:17:53.132Z,10.80
2022-11-18T16:19:55.315Z,10.70
2022-11-18T16:21:57.418Z,11.55
2022-11-18T16:24:01.228Z,8.60
2022-11-18T16:26:03.391Z,11.10
2022-11-18T16:30:45.798Z,10.43
2022-11-18T16:32:51.579Z,10.40
2022-11-18T16:34:58.028Z,10.52
2022-11-18T16:37:05.033Z,11.02
2022-11-18T16:39:15.088Z,11.05
2022-11-18T16:40:28.282Z,10.93
2022-11-18T16:41:32.192Z,10.15
2022-11-18T16:43:34.319Z,13.25
2022-11-18T16:45:36.113Z,11.13
2022-11-18T16:47:38.549Z,12.20
2022-11-18T16:49:40.780Z,11.27
2022-11-18T16:51:44.794Z,11.40
2022-11-18T16:53:54.804Z,11.93
2022-11-18T16:56:02.769Z,12.18
2022-11-18T16:58:04.709Z,12.10
2022-11-18T17:00:07.712Z,10.60
2022-11-18T17:02:12.396Z,10.63
2022-11-18T17:04:15.030Z,11.57
2022-11-18T17:08:19.135Z,10.63
2022-11-18T17:10:21.430Z,10.48
2022-11-18T17:12:23.614Z,11.35
2022-11-18T17:14:25.810Z,10.60
2022-11-18T17:16:27.606Z,10.50
2022-11-18T17:18:29.827Z,10.73
2022-11-18T17:20:31.583Z,10.40
2022-11-18T17:22:33.386Z,10.15
2022-11-18T17:24:35.586Z,11.02
2022-11-18T17:26:37.670Z,10.10
2022-11-18T17:28:40.016Z,7.43
2022-11-18T17:30:47.139Z,10.50
2022-11-18T17:32:51.518Z,11.20
2022-11-18T17:34:53.289Z,10.45
2022-11-18T17:36:55.613Z,8.55
2022-11-18T17:38:59.794Z,11.43
2022-11-18T17:41:01.828Z,11.18
2022-11-18T17:43:04.039Z,11.75
2022-11-18T17:45:06.434Z,30.67
2022-11-18T17:47:08.217Z,12.18
2022-11-18T17:49:13.851Z,12.73
2022-11-18T17:51:15.669Z,14.20
2022-11-18T17:53:18.419Z,12.57
2022-11-18T17:55:20.574Z,12.85
2022-11-18T17:57:22.394Z,13.13
2022-11-18T17:59:24.228Z,12.43
2022-11-18T18:01:26.469Z,12.63
2022-11-18T18:03:29.026Z,13.45
2022-11-18T18:05:30.874Z,11.77
2022-11-18T18:07:33.179Z,13.20
2022-11-18T18:09:34.975Z,12.18
2022-11-18T18:11:36.763Z,12.88
2022-11-18T18:13:58.351Z,9.43
2022-11-18T18:16:01.895Z,12.27
2022-11-18T18:18:04.362Z,11.95
2022-11-18T18:20:07.059Z,11.50
2022-11-18T18:22:08.994Z,12.60
2022-11-18T18:24:12.070Z,11.93
2022-11-18T18:26:14.784Z,12.07
2022-11-18T18:28:16.606Z,12.60
2022-11-18T18:30:18.473Z,11.75
2022-11-18T18:32:20.759Z,12.07
2022-11-18T18:34:22.701Z,12.50
2022-11-18T18:36:25.323Z,12.40
2022-11-18T18:40:30.014Z,11.02
2022-11-18T18:42:31.800Z,12.38
2022-11-18T18:44:52.399Z,13.65
2022-11-18T18:46:54.179Z,13.07
2022-11-18T18:48:58.284Z,13.32
2022-11-18T18:51:07.366Z,11.60
2022-11-18T18:53:09.126Z,11.07
2022-11-18T18:55:10.998Z,11.88
2022-11-18T18:57:13.188Z,12.50
2022-11-18T18:59:14.988Z,11.55
2022-11-18T19:01:19.475Z,11.43
2022-11-18T19:03:21.948Z,11.77
2022-11-18T19:05:44.693Z,11.57
2022-11-18T19:07:45.591Z,11.23
2022-11-18T19:09:47.747Z,8.43
2022-11-18T19:12:08.270Z,11.52
2022-11-18T19:14:13.474Z,11.73
2022-11-18T19:16:15.677Z,17.50
2022-11-18T19:18:17.619Z,11.63
2022-11-18T19:20:34.263Z,10.97
2022-11-18T19:22:36.724Z,10.77
2022-11-18T19:24:54.407Z,11.10
2022-11-18T19:26:56.514Z,12.02
2022-11-18T19:28:59.494Z,11.45
2022-11-18T19:31:01.340Z,11.68
2022-11-18T19:33:04.570Z,10.98
2022-11-18T19:35:08.163Z,11.48
2022-11-18T19:37:09.984Z,11.73
2022-11-18T19:39:11.836Z,13.60
2022-11-18T19:41:13.982Z,16.50
2022-11-18T19:43:15.736Z,11.50
2022-11-18T19:45:19.479Z,11.63
2022-11-18T19:47:21.722Z,11.00
2022-11-18T19:49:24.963Z,12.50
2022-11-18T19:51:26.761Z,11.10
2022-11-18T19:53:31.845Z,8.88
2022-11-18T19:55:33.621Z,11.55
2022-11-18T19:57:35.442Z,12.43
2022-11-18T19:59:37.743Z,12.90
2022-11-18T20:01:39.824Z,12.20
2022-11-18T20:03:43.740Z,12.13
2022-11-18T20:05:51.815Z,12.57
2022-11-18T20:07:56.550Z,11.73
2022-11-18T20:09:58.424Z,12.68
2022-11-18T20:12:00.620Z,15.95
2022-11-18T20:14:02.650Z,21.23
2022-11-18T20:16:06.524Z,12.50
2022-11-18T20:18:09.118Z,12.18
2022-11-18T20:20:11.205Z,12.48
2022-11-18T20:22:12.994Z,13.45
2022-11-18T20:24:17.567Z,9.82
2022-11-18T20:26:21.354Z,12.63
2022-11-18T20:28:23.190Z,12.65
2022-11-18T20:30:25.754Z,12.75
2022-11-18T20:32:27.519Z,17.88
2022-11-18T20:34:29.427Z,13.32
2022-11-18T20:36:34.081Z,12.73
2022-11-18T20:38:35.899Z,12.68
2022-11-18T20:40:37.832Z,12.75
2022-11-18T20:42:58.523Z,13.18
2022-11-18T20:45:00.408Z,13.35
2022-11-18T20:47:02.345Z,13.90
2022-11-18T20:49:04.475Z,13.73
2022-11-18T20:51:09.898Z,13.35
2022-11-18T20:53:11.771Z,12.32
2022-11-18T20:55:13.946Z,12.00
2022-11-18T20:57:15.725Z,12.13
2022-11-18T20:59:17.960Z,12.05
2022-11-18T21:01:23.891Z,12.25
2022-11-18T21:03:25.942Z,10.82
2022-11-18T21:05:27.759Z,23.47
2022-11-18T21:07:34.895Z,12.10
2022-11-18T21:09:36.992Z,11.27
2022-11-18T21:11:38.883Z,11.15
2022-11-18T21:13:59.818Z,11.57
2022-11-18T21:16:01.652Z,11.57
2022-11-18T21:18:03.419Z,12.75
2022-11-18T21:20:26.317Z,15.77
2022-11-18T21:22:28.295Z,12.65
2022-11-18T21:24:32.360Z,11.97
2022-11-18T21:26:36.005Z,13.05
2022-11-18T21:28:37.826Z,11.98
2022-11-18T21:30:40.178Z,12.07
2022-11-18T21:32:42.287Z,13.27
2022-11-18T21:34:44.225Z,12.88
2022-11-18T21:36:50.396Z,13.63
2022-11-18T21:38:57.903Z,14.00
2022-11-18T21:41:04.520Z,13.25
2022-11-18T21:43:06.346Z,13.52
2022-11-18T21:45:09.084Z,14.60
2022-11-18T21:47:10.877Z,13.77
2022-11-18T21:49:12.786Z,14.30
2022-11-18T21:51:17.201Z,15.18
2022-11-18T21:53:20.276Z,14.30
2022-11-18T21:55:22.042Z,15.02
2022-11-18T21:57:24.143Z,15.13
2022-11-18T21:59:25.963Z,14.85
2022-11-18T22:01:30.458Z,14.07
2022-11-18T22:03:32.632Z,13.95
2022-11-18T22:05:34.439Z,14.45
2022-11-18T22:07:36.298Z,14.27
2022-11-18T22:09:38.478Z,14.70
2022-11-18T22:11:40.262Z,15.10
2022-11-18T22:13:43.095Z,13.60
2022-11-18T22:15:45.363Z,14.63
2022-11-18T22:17:47.202Z,13.73
2022-11-18T22:19:49.000Z,14.13
2022-11-18T22:21:51.302Z,14.43
2022-11-18T22:23:53.508Z,14.30
2022-11-18T22:26:08.722Z,14.20
2022-11-18T22:28:10.878Z,14.43
2022-11-18T22:30:12.980Z,14.20
2022-11-18T22:32:14.836Z,19.57
2022-11-18T22:34:17.003Z,15.18
2022-11-18T22:36:23.441Z,14.18
2022-11-18T22:38:25.195Z,14.30
2022-11-18T22:40:27.376Z,13.30
2022-11-18T22:42:47.394Z,14.43
2022-11-18T22:44:49.200Z,14.57
2022-11-18T22:46:52.507Z,14.23
2022-11-18T22:51:06.188Z,14.43
2022-11-18T22:53:08.318Z,13.90
2022-11-18T22:55:11.154Z,14.38
2022-11-18T22:57:12.963Z,13.65
2022-11-18T22:59:15.098Z,14.63
2022-11-18T23:01:20.209Z,14.13
2022-11-18T23:03:21.978Z,14.75
2022-11-18T23:05:24.162Z,13.75
2022-11-18T23:07:26.023Z,14.40
2022-11-18T23:09:28.022Z,14.70
2022-11-18T23:11:49.157Z,14.35
2022-11-18T23:13:56.820Z,14.55
2022-11-18T23:15:59.426Z,14.52
2022-11-18T23:18:01.736Z,14.27
2022-11-18T23:20:04.005Z,14.40
2022-11-18T23:22:05.749Z,14.93
2022-11-18T23:24:11.202Z,15.00
2022-11-18T23:26:15.235Z,14.02
2022-11-18T23:28:17.014Z,14.43
2022-11-18T23:30:19.247Z,14.35
2022-11-18T23:32:21.230Z,15.35
2022-11-18T23:34:23.034Z,14.73
2022-11-18T23:36:26.460Z,15.90
2022-11-18T23:38:29.550Z,15.70
2022-11-18T23:40:31.760Z,15.85
2022-11-18T23:42:33.874Z,14.75
2022-11-18T23:44:49.226Z,15.20
2022-11-18T23:46:51.036Z,14.88
2022-11-18T23:48:53.462Z,14.82
2022-11-18T23:51:01.390Z,11.35
2022-11-18T23:53:03.268Z,14.95
2022-11-18T23:55:05.788Z,15.23
2022-11-18T23:57:07.902Z,15.23
2022-11-18T23:59:09.702Z,15.20
